Time;durP1;ratioP1;P1;durP2;ratioP2;P2;SDS_P1;SDS_P2;PMS_P1;PMS_P2;Temp;Humidity;BMP_temperature;BMP_pressure;BME280_temperature;BME280_humidity;BME280_pressure;Samples;Min_cycle;Max_cycle;Signal;HPM_P1;HPM_P2
2022/04/21 00:00:00;;;;;;;6.6;5.8;;;;;;;11.3;100.0;101130;;;;
2022/04/21 00:01:00;;;;;;;6.6;5.8;;;;;;;11.3;100.0;101130;;;;
2022/04/21 00:02:00;;;;;;;6.6;5.8;;;;;;;11.3;100.0;101130;;;;
2022/04/21 00:03:01;;;;;;;6.6;5.8;;;;;;;11.3;100.0;101130;;;;
2022/04/21 00:04:00;;;;;;;6.6;5.8;;;;;;;11.4;100.0;101130;;;;
2022/04/21 00:05:00;;;;;;;6.6;5.8;;;;;;;11.4;100.0;101130;;;;
2022/04/21 00:06:00;;;;;;;6.6;5.8;;;;;;;11.4;100.0;101130;;;;
2022/04/21 00:07:00;;;;;;;6.6;5.8;;;;;;;11.4;100.0;101130;;;;
2022/04/21 00:08:00;;;;;;;6.6;5.8;;;;;;;11.3;100.0;101130;;;;
2022/04/21 00:09:00;;;;;;;6.6;5.8;;;;;;;11.3;100.0;101130;;;;
2022/04/21 00:10:00;;;;;;;6.6;5.8;;;;;;;11.2;100.0;101130;;;;
2022/04/21 00:11:00;;;;;;;6.6;5.8;;;;;;;11.2;100.0;101130;;;;
2022/04/21 00:12:00;;;;;;;6.6;5.8;;;;;;;11.2;100.0;101130;;;;
2022/04/21 00:13:00;;;;;;;6.6;5.8;;;;;;;11.2;100.0;101130;;;;
2022/04/21 00:14:00;;;;;;;6.6;5.8;;;;;;;11.2;100.0;101120;;;;
2022/04/21 00:15:01;;;;;;;6.6;5.8;;;;;;;11.2;100.0;101120;;;;
2022/04/21 00:16:00;;;;;;;6.6;5.8;;;;;;;11.2;100.0;101130;;;;
2022/04/21 00:17:00;;;;;;;6.6;5.8;;;;;;;11.2;100.0;101130;;;;
2022/04/21 00:18:00;;;;;;;6.6;5.8;;;;;;;11.2;100.0;101120;;;;
2022/04/21 00:19:00;;;;;;;6.6;5.8;;;;;;;11.2;100.0;101120;;;;
2022/04/21 00:20:00;;;;;;;6.8;5.8;;;;;;;11.1;100.0;101120;;;;
2022/04/21 00:21:02;;;;;;;6.8;5.8;;;;;;;11.1;100.0;101120;;;;
2022/04/21 00:24:00;;;;;;;6.8;5.8;;;;;;;11.0;100.0;101120;;;;
2022/04/21 00:25:00;;;;;;;6.8;5.8;;;;;;;11.0;100.0;101120;;;;
2022/04/21 00:26:01;;;;;;;6.8;5.8;;;;;;;11.0;100.0;101120;;;;
2022/04/21 00:27:00;;;;;;;6.8;5.8;;;;;;;11.0;100.0;101120;;;;
2022/04/21 00:28:00;;;;;;;6.8;5.8;;;;;;;11.0;100.0;101120;;;;
2022/04/21 00:29:00;;;;;;;6.8;5.8;;;;;;;11.0;100.0;101120;;;;
2022/04/21 00:30:00;;;;;;;6.8;5.8;;;;;;;11.0;100.0;101120;;;;
2022/04/21 00:31:00;;;;;;;6.8;5.8;;;;;;;11.0;100.0;101120;;;;
2022/04/21 00:32:00;;;;;;;6.8;5.8;;;;;;;10.9;100.0;101130;;;;
2022/04/21 00:33:00;;;;;;;6.8;5.8;;;;;;;10.9;100.0;101130;;;;
2022/04/21 00:34:00;;;;;;;6.8;5.8;;;;;;;10.7;100.0;101120;;;;
2022/04/21 00:35:00;;;;;;;6.8;5.8;;;;;;;10.7;100.0;101120;;;;
2022/04/21 00:36:00;;;;;;;6.8;5.8;;;;;;;10.8;100.0;101130;;;;
2022/04/21 00:37:00;;;;;;;6.8;5.8;;;;;;;10.8;100.0;101130;;;;
2022/04/21 00:38:00;;;;;;;6.8;5.8;;;;;;;10.7;100.0;101130;;;;
2022/04/21 00:39:00;;;;;;;6.8;5.8;;;;;;;10.7;100.0;101130;;;;
2022/04/21 00:40:00;;;;;;;6.8;6.2;;;;;;;10.8;100.0;101130;;;;
2022/04/21 00:41:00;;;;;;;6.8;6.2;;;;;;;10.8;100.0;101130;;;;
2022/04/21 00:42:01;;;;;;;6.8;6.2;;;;;;;10.7;100.0;101130;;;;
2022/04/21 00:43:00;;;;;;;6.8;6.2;;;;;;;10.7;100.0;101130;;;;
2022/04/21 00:44:00;;;;;;;6.8;6.2;;;;;;;10.6;100.0;101120;;;;
2022/04/21 00:45:00;;;;;;;6.8;6.2;;;;;;;10.6;100.0;101120;;;;
2022/04/21 00:46:00;;;;;;;6.8;6.2;;;;;;;10.6;100.0;101120;;;;
2022/04/21 00:47:02;;;;;;;6.8;6.2;;;;;;;10.6;100.0;101120;;;;
2022/04/21 00:48:01;;;;;;;6.8;6.2;;;;;;;10.6;100.0;101120;;;;
2022/04/21 00:49:00;;;;;;;6.8;6.2;;;;;;;10.6;100.0;101120;;;;
2022/04/21 00:50:00;;;;;;;6.8;6.2;;;;;;;10.6;100.0;101120;;;;
2022/04/21 00:51:00;;;;;;;6.8;6.2;;;;;;;10.6;100.0;101120;;;;
2022/04/21 00:52:01;;;;;;;6.8;6.2;;;;;;;10.6;100.0;101120;;;;
2022/04/21 00:53:01;;;;;;;6.8;6.2;;;;;;;10.6;100.0;101120;;;;
2022/04/21 00:54:00;;;;;;;6.8;6.2;;;;;;;10.5;100.0;101120;;;;
2022/04/21 00:55:00;;;;;;;6.8;6.2;;;;;;;10.5;100.0;101120;;;;
2022/04/21 00:56:01;;;;;;;6.8;6.2;;;;;;;10.6;100.0;101120;;;;
2022/04/21 00:57:00;;;;;;;6.8;6.2;;;;;;;10.6;100.0;101120;;;;
2022/04/21 00:58:03;;;;;;;6.8;6.2;;;;;;;10.5;100.0;101120;;;;
2022/04/21 00:59:02;;;;;;;6.8;6.2;;;;;;;10.5;100.0;101120;;;;
2022/04/21 01:00:00;;;;;;;6.8;5.8;;;;;;;10.5;100.0;101110;;;;
2022/04/21 01:01:00;;;;;;;6.8;5.8;;;;;;;10.5;100.0;101110;;;;
2022/04/21 01:03:00;;;;;;;6.8;5.8;;;;;;;10.5;100.0;101110;;;;
2022/04/21 01:04:00;;;;;;;6.8;5.8;;;;;;;10.5;100.0;101120;;;;
2022/04/21 01:05:00;;;;;;;6.8;5.8;;;;;;;10.5;100.0;101120;;;;
2022/04/21 01:06:01;;;;;;;6.8;5.8;;;;;;;10.3;100.0;101120;;;;
2022/04/21 01:07:00;;;;;;;6.8;5.8;;;;;;;10.3;100.0;101120;;;;
2022/04/21 01:08:02;;;;;;;6.8;5.8;;;;;;;10.4;100.0;101120;;;;
2022/04/21 01:09:00;;;;;;;6.8;5.8;;;;;;;10.4;100.0;101120;;;;
2022/04/21 01:10:00;;;;;;;6.8;5.8;;;;;;;10.3;100.0;101120;;;;
2022/04/21 01:11:00;;;;;;;6.8;5.8;;;;;;;10.3;100.0;101120;;;;
2022/04/21 01:12:00;;;;;;;6.8;5.8;;;;;;;10.2;100.0;101120;;;;
2022/04/21 01:13:00;;;;;;;6.8;5.8;;;;;;;10.2;100.0;101120;;;;
2022/04/21 01:14:00;;;;;;;6.8;5.8;;;;;;;10.2;100.0;101120;;;;
2022/04/21 01:15:00;;;;;;;6.8;5.8;;;;;;;10.2;100.0;101120;;;;
2022/04/21 01:16:00;;;;;;;6.8;5.8;;;;;;;10.2;100.0;101120;;;;
2022/04/21 01:17:00;;;;;;;6.8;5.8;;;;;;;10.2;100.0;101120;;;;
2022/04/21 01:18:00;;;;;;;6.8;5.8;;;;;;;10.2;100.0;101120;;;;
2022/04/21 01:19:00;;;;;;;6.8;5.8;;;;;;;10.2;100.0;101120;;;;
2022/04/21 01:20:00;;;;;;;7.0;6.3;;;;;;;10.3;100.0;101110;;;;
2022/04/21 01:21:00;;;;;;;7.0;6.3;;;;;;;10.3;100.0;101110;;;;
2022/04/21 01:22:00;;;;;;;7.0;6.3;;;;;;;10.3;100.0;101110;;;;
2022/04/21 01:23:00;;;;;;;7.0;6.3;;;;;;;10.3;100.0;101110;;;;
2022/04/21 01:24:01;;;;;;;7.0;6.3;;;;;;;10.2;100.0;101110;;;;
2022/04/21 01:25:00;;;;;;;7.0;6.3;;;;;;;10.2;100.0;101110;;;;
2022/04/21 01:26:01;;;;;;;7.0;6.3;;;;;;;10.1;100.0;101120;;;;
2022/04/21 01:27:00;;;;;;;7.0;6.3;;;;;;;10.1;100.0;101120;;;;
2022/04/21 01:28:01;;;;;;;7.0;6.3;;;;;;;10.0;100.0;101110;;;;
2022/04/21 01:29:01;;;;;;;7.0;6.3;;;;;;;10.0;100.0;101110;;;;
2022/04/21 01:30:02;;;;;;;7.0;6.3;;;;;;;10.1;100.0;101110;;;;
2022/04/21 01:31:00;;;;;;;7.0;6.3;;;;;;;10.1;100.0;101110;;;;
2022/04/21 01:32:00;;;;;;;7.0;6.3;;;;;;;10.1;100.0;101100;;;;
2022/04/21 01:33:00;;;;;;;7.0;6.3;;;;;;;10.1;100.0;101100;;;;
2022/04/21 01:34:00;;;;;;;7.0;6.3;;;;;;;10.0;100.0;101100;;;;
2022/04/21 01:35:00;;;;;;;7.0;6.3;;;;;;;10.0;100.0;101100;;;;
2022/04/21 01:36:00;;;;;;;7.0;6.3;;;;;;;10.0;100.0;101100;;;;
2022/04/21 01:42:00;;;;;;;7.6;6.8;;;;;;;9.9;100.0;101100;;;;
2022/04/21 01:43:00;;;;;;;7.6;6.8;;;;;;;9.9;100.0;101100;;;;
2022/04/21 01:44:00;;;;;;;7.6;6.8;;;;;;;9.9;100.0;101100;;;;
2022/04/21 01:45:00;;;;;;;7.6;6.8;;;;;;;9.9;100.0;101100;;;;
2022/04/21 01:46:00;;;;;;;7.6;6.8;;;;;;;9.8;100.0;101100;;;;
2022/04/21 01:47:00;;;;;;;7.6;6.8;;;;;;;9.8;100.0;101100;;;;
2022/04/21 01:48:00;;;;;;;7.6;6.8;;;;;;;9.9;100.0;101100;;;;
2022/04/21 01:49:00;;;;;;;7.6;6.8;;;;;;;9.9;100.0;101100;;;;
2022/04/21 01:50:00;;;;;;;7.6;6.8;;;;;;;9.8;100.0;101100;;;;
2022/04/21 01:51:00;;;;;;;7.6;6.8;;;;;;;9.8;100.0;101100;;;;
2022/04/21 01:52:00;;;;;;;7.6;6.8;;;;;;;9.7;100.0;101100;;;;
2022/04/21 01:53:00;;;;;;;7.6;6.8;;;;;;;9.7;100.0;101100;;;;
2022/04/21 01:54:00;;;;;;;7.6;6.8;;;;;;;9.6;100.0;101100;;;;
2022/04/21 01:55:00;;;;;;;7.6;6.8;;;;;;;9.6;100.0;101100;;;;
2022/04/21 01:56:00;;;;;;;7.6;6.8;;;;;;;9.5;100.0;101100;;;;
2022/04/21 01:57:00;;;;;;;7.6;6.8;;;;;;;9.5;100.0;101100;;;;
2022/04/21 01:58:00;;;;;;;7.6;6.8;;;;;;;9.5;100.0;101100;;;;
2022/04/21 01:59:00;;;;;;;7.6;6.8;;;;;;;9.5;100.0;101100;;;;
2022/04/21 02:00:00;;;;;;;8.6;7.0;;;;;;;9.6;100.0;101100;;;;
2022/04/21 02:01:00;;;;;;;8.6;7.0;;;;;;;9.6;100.0;101100;;;;
2022/04/21 02:02:00;;;;;;;8.6;7.0;;;;;;;9.5;100.0;101100;;;;
2022/04/21 02:03:00;;;;;;;8.6;7.0;;;;;;;9.5;100.0;101100;;;;
2022/04/21 02:04:00;;;;;;;8.6;7.0;;;;;;;9.5;100.0;101100;;;;
2022/04/21 02:05:00;;;;;;;8.6;7.0;;;;;;;9.5;100.0;101100;;;;
2022/04/21 02:06:00;;;;;;;8.6;7.0;;;;;;;9.5;100.0;101100;;;;
2022/04/21 02:07:00;;;;;;;8.6;7.0;;;;;;;9.5;100.0;101100;;;;
2022/04/21 02:08:00;;;;;;;8.6;7.0;;;;;;;9.5;100.0;101100;;;;
2022/04/21 02:09:00;;;;;;;8.6;7.0;;;;;;;9.5;100.0;101100;;;;
2022/04/21 02:10:00;;;;;;;8.6;7.0;;;;;;;9.5;100.0;101100;;;;
2022/04/21 02:11:00;;;;;;;8.6;7.0;;;;;;;9.5;100.0;101100;;;;
2022/04/21 02:12:00;;;;;;;8.6;7.0;;;;;;;9.5;100.0;101100;;;;
2022/04/21 02:13:00;;;;;;;8.6;7.0;;;;;;;9.5;100.0;101100;;;;
2022/04/21 02:14:00;;;;;;;8.6;7.0;;;;;;;9.5;100.0;101100;;;;
2022/04/21 02:15:01;;;;;;;8.6;7.0;;;;;;;9.5;100.0;101100;;;;
2022/04/21 02:16:00;;;;;;;8.6;7.0;;;;;;;9.4;100.0;101090;;;;
2022/04/21 02:17:00;;;;;;;8.6;7.0;;;;;;;9.4;100.0;101090;;;;
2022/04/21 02:18:01;;;;;;;8.6;7.0;;;;;;;9.4;100.0;101090;;;;
2022/04/21 02:19:00;;;;;;;8.6;7.0;;;;;;;9.4;100.0;101090;;;;
2022/04/21 02:20:00;;;;;;;8.0;6.8;;;;;;;9.3;100.0;101100;;;;
2022/04/21 02:21:00;;;;;;;8.0;6.8;;;;;;;9.3;100.0;101100;;;;
2022/04/21 02:22:00;;;;;;;8.0;6.8;;;;;;;9.3;100.0;101100;;;;
2022/04/21 02:23:00;;;;;;;8.0;6.8;;;;;;;9.3;100.0;101100;;;;
2022/04/21 02:24:00;;;;;;;8.0;6.8;;;;;;;9.3;100.0;101100;;;;
2022/04/21 02:25:00;;;;;;;8.0;6.8;;;;;;;9.3;100.0;101100;;;;
2022/04/21 02:26:00;;;;;;;8.0;6.8;;;;;;;9.3;100.0;101090;;;;
2022/04/21 02:27:00;;;;;;;8.0;6.8;;;;;;;9.3;100.0;101090;;;;
2022/04/21 02:28:00;;;;;;;8.0;6.8;;;;;;;9.3;100.0;101100;;;;
2022/04/21 02:29:00;;;;;;;8.0;6.8;;;;;;;9.3;100.0;101100;;;;
2022/04/21 02:30:00;;;;;;;8.0;6.8;;;;;;;9.4;100.0;101100;;;;
2022/04/21 02:31:00;;;;;;;8.0;6.8;;;;;;;9.4;100.0;101100;;;;
2022/04/21 02:32:01;;;;;;;8.0;6.8;;;;;;;9.5;100.0;101100;;;;
2022/04/21 02:33:00;;;;;;;8.0;6.8;;;;;;;9.5;100.0;101100;;;;
2022/04/21 02:34:00;;;;;;;8.0;6.8;;;;;;;9.4;100.0;101100;;;;
2022/04/21 02:35:00;;;;;;;8.0;6.8;;;;;;;9.4;100.0;101100;;;;
2022/04/21 02:36:00;;;;;;;8.0;6.8;;;;;;;9.4;100.0;101100;;;;
2022/04/21 02:37:00;;;;;;;8.0;6.8;;;;;;;9.4;100.0;101100;;;;
2022/04/21 02:38:00;;;;;;;8.0;6.8;;;;;;;9.5;100.0;101090;;;;
2022/04/21 02:39:00;;;;;;;8.0;6.8;;;;;;;9.5;100.0;101090;;;;
2022/04/21 02:40:00;;;;;;;9.0;7.3;;;;;;;9.5;100.0;101090;;;;
2022/04/21 02:41:00;;;;;;;9.0;7.3;;;;;;;9.5;100.0;101090;;;;
2022/04/21 02:42:01;;;;;;;9.0;7.3;;;;;;;9.3;100.0;101090;;;;
2022/04/21 02:43:00;;;;;;;9.0;7.3;;;;;;;9.3;100.0;101090;;;;
2022/04/21 02:44:00;;;;;;;9.0;7.3;;;;;;;9.2;100.0;101100;;;;
2022/04/21 02:45:00;;;;;;;9.0;7.3;;;;;;;9.2;100.0;101100;;;;
2022/04/21 02:46:01;;;;;;;9.0;7.3;;;;;;;9.2;100.0;101100;;;;
2022/04/21 02:47:00;;;;;;;9.0;7.3;;;;;;;9.2;100.0;101100;;;;
2022/04/21 02:48:00;;;;;;;9.0;7.3;;;;;;;9.3;100.0;101100;;;;
2022/04/21 02:49:00;;;;;;;9.0;7.3;;;;;;;9.3;100.0;101100;;;;
2022/04/21 02:50:00;;;;;;;9.0;7.3;;;;;;;9.2;100.0;101100;;;;
2022/04/21 02:51:00;;;;;;;9.0;7.3;;;;;;;9.2;100.0;101100;;;;
2022/04/21 02:52:00;;;;;;;9.0;7.3;;;;;;;9.2;100.0;101090;;;;
2022/04/21 02:53:00;;;;;;;9.0;7.3;;;;;;;9.2;100.0;101090;;;;
2022/04/21 02:58:00;;;;;;;9.0;7.3;;;;;;;9.1;100.0;101100;;;;
2022/04/21 02:59:00;;;;;;;9.0;7.3;;;;;;;9.1;100.0;101100;;;;
2022/04/21 03:00:01;;;;;;;7.8;7.1;;;;;;;9.1;100.0;101100;;;;
2022/04/21 03:01:00;;;;;;;7.8;7.1;;;;;;;9.1;100.0;101100;;;;
2022/04/21 03:02:00;;;;;;;7.8;7.1;;;;;;;9.0;100.0;101100;;;;
2022/04/21 03:03:01;;;;;;;7.8;7.1;;;;;;;9.0;100.0;101100;;;;
2022/04/21 03:04:01;;;;;;;7.8;7.1;;;;;;;9.0;100.0;101100;;;;
2022/04/21 03:05:00;;;;;;;7.8;7.1;;;;;;;9.0;100.0;101100;;;;
2022/04/21 03:06:00;;;;;;;7.8;7.1;;;;;;;9.1;100.0;101100;;;;
2022/04/21 03:07:00;;;;;;;7.8;7.1;;;;;;;9.1;100.0;101100;;;;
2022/04/21 03:08:00;;;;;;;7.8;7.1;;;;;;;9.0;100.0;101090;;;;
2022/04/21 03:09:00;;;;;;;7.8;7.1;;;;;;;9.0;100.0;101090;;;;
2022/04/21 03:10:00;;;;;;;7.8;7.1;;;;;;;8.9;100.0;101090;;;;
2022/04/21 03:11:00;;;;;;;7.8;7.1;;;;;;;8.9;100.0;101090;;;;
2022/04/21 03:12:02;;;;;;;7.8;7.1;;;;;;;8.9;100.0;101090;;;;
2022/04/21 03:13:00;;;;;;;7.8;7.1;;;;;;;8.9;100.0;101090;;;;
2022/04/21 03:14:00;;;;;;;7.8;7.1;;;;;;;8.8;100.0;101090;;;;
2022/04/21 03:15:00;;;;;;;7.8;7.1;;;;;;;8.8;100.0;101090;;;;
2022/04/21 03:16:00;;;;;;;7.8;7.1;;;;;;;9.0;100.0;101090;;;;
2022/04/21 03:17:00;;;;;;;7.8;7.1;;;;;;;9.0;100.0;101090;;;;
2022/04/21 03:18:00;;;;;;;7.8;7.1;;;;;;;8.8;100.0;101090;;;;
2022/04/21 03:19:00;;;;;;;7.8;7.1;;;;;;;8.8;100.0;101090;;;;
2022/04/21 03:20:00;;;;;;;9.2;7.6;;;;;;;9.0;100.0;101090;;;;
2022/04/21 03:25:02;;;;;;;9.2;7.6;;;;;;;8.7;100.0;101090;;;;
2022/04/21 03:26:00;;;;;;;9.2;7.6;;;;;;;8.7;100.0;101090;;;;
2022/04/21 03:27:00;;;;;;;9.2;7.6;;;;;;;8.7;100.0;101090;;;;
2022/04/21 03:28:01;;;;;;;9.2;7.6;;;;;;;8.6;100.0;101090;;;;
2022/04/21 03:29:00;;;;;;;9.2;7.6;;;;;;;8.6;100.0;101090;;;;
2022/04/21 03:30:00;;;;;;;9.2;7.6;;;;;;;8.6;100.0;101090;;;;
2022/04/21 03:31:00;;;;;;;9.2;7.6;;;;;;;8.6;100.0;101090;;;;
2022/04/21 03:32:00;;;;;;;9.2;7.6;;;;;;;8.6;100.0;101090;;;;
2022/04/21 03:33:00;;;;;;;9.2;7.6;;;;;;;8.6;100.0;101090;;;;
2022/04/21 03:34:01;;;;;;;9.2;7.6;;;;;;;8.5;100.0;101080;;;;
2022/04/21 03:35:00;;;;;;;9.2;7.6;;;;;;;8.5;100.0;101080;;;;
2022/04/21 03:36:00;;;;;;;9.2;7.6;;;;;;;8.6;100.0;101080;;;;
2022/04/21 03:37:00;;;;;;;9.2;7.6;;;;;;;8.6;100.0;101080;;;;
2022/04/21 03:38:00;;;;;;;9.2;7.6;;;;;;;8.6;100.0;101080;;;;
2022/04/21 03:39:00;;;;;;;8.0;7.2;;;;;;;8.6;100.0;101080;;;;
2022/04/21 03:40:00;;;;;;;8.0;7.2;;;;;;;8.6;100.0;101090;;;;
2022/04/21 03:41:00;;;;;;;8.0;7.2;;;;;;;8.6;100.0;101090;;;;
2022/04/21 03:42:01;;;;;;;8.0;7.2;;;;;;;8.6;100.0;101090;;;;
2022/04/21 03:43:00;;;;;;;8.0;7.2;;;;;;;8.6;100.0;101090;;;;
2022/04/21 03:44:00;;;;;;;8.0;7.2;;;;;;;8.6;100.0;101090;;;;
2022/04/21 03:45:00;;;;;;;8.0;7.2;;;;;;;8.6;100.0;101090;;;;
2022/04/21 03:46:00;;;;;;;8.0;7.2;;;;;;;8.5;100.0;101100;;;;
2022/04/21 03:47:00;;;;;;;8.0;7.2;;;;;;;8.5;100.0;101100;;;;
2022/04/21 03:48:01;;;;;;;8.0;7.2;;;;;;;8.5;100.0;101100;;;;
2022/04/21 03:49:00;;;;;;;8.0;7.2;;;;;;;8.5;100.0;101100;;;;
2022/04/21 03:50:00;;;;;;;8.0;7.2;;;;;;;8.5;100.0;101100;;;;
2022/04/21 03:51:00;;;;;;;8.0;7.2;;;;;;;8.5;100.0;101100;;;;
2022/04/21 03:52:00;;;;;;;8.0;7.2;;;;;;;8.5;100.0;101100;;;;
2022/04/21 03:53:00;;;;;;;8.0;7.2;;;;;;;8.5;100.0;101100;;;;
2022/04/21 03:54:00;;;;;;;8.0;7.2;;;;;;;8.5;100.0;101100;;;;
2022/04/21 03:55:00;;;;;;;8.0;7.2;;;;;;;8.5;100.0;101100;;;;
2022/04/21 03:56:00;;;;;;;8.0;7.2;;;;;;;8.4;100.0;101100;;;;
2022/04/21 03:57:00;;;;;;;8.0;7.2;;;;;;;8.4;100.0;101100;;;;
2022/04/21 03:58:00;;;;;;;8.0;7.2;;;;;;;8.4;100.0;101100;;;;
2022/04/21 03:59:00;;;;;;;8.1;7.2;;;;;;;8.4;100.0;101100;;;;
2022/04/21 04:00:00;;;;;;;8.1;7.2;;;;;;;8.5;100.0;101100;;;;
2022/04/21 04:01:00;;;;;;;8.1;7.2;;;;;;;8.5;100.0;101100;;;;
2022/04/21 04:02:03;;;;;;;8.1;7.2;;;;;;;8.5;100.0;101100;;;;
2022/04/21 04:03:00;;;;;;;8.1;7.2;;;;;;;8.5;100.0;101100;;;;
2022/04/21 04:04:00;;;;;;;8.1;7.2;;;;;;;8.5;100.0;101100;;;;
2022/04/21 04:05:02;;;;;;;8.1;7.2;;;;;;;8.5;100.0;101100;;;;
2022/04/21 04:06:00;;;;;;;8.1;7.2;;;;;;;8.5;100.0;101100;;;;
2022/04/21 04:11:01;;;;;;;8.1;7.2;;;;;;;8.4;100.0;101100;;;;
2022/04/21 04:12:00;;;;;;;8.1;7.2;;;;;;;8.5;100.0;101100;;;;
2022/04/21 04:13:00;;;;;;;8.1;7.2;;;;;;;8.5;100.0;101100;;;;
2022/04/21 04:14:00;;;;;;;8.1;7.2;;;;;;;8.5;100.0;101110;;;;
2022/04/21 04:15:04;;;;;;;8.1;7.2;;;;;;;8.4;100.0;101110;;;;
2022/04/21 04:16:00;;;;;;;8.1;7.2;;;;;;;8.4;100.0;101110;;;;
2022/04/21 04:17:00;;;;;;;8.1;7.2;;;;;;;8.4;100.0;101110;;;;
2022/04/21 04:18:00;;;;;;;8.1;7.2;;;;;;;8.4;100.0;101110;;;;
2022/04/21 04:19:00;;;;;;;14.4;8.0;;;;;;;8.4;100.0;101110;;;;
2022/04/21 04:20:00;;;;;;;14.4;8.0;;;;;;;8.5;100.0;101110;;;;
2022/04/21 04:21:00;;;;;;;14.4;8.0;;;;;;;8.5;100.0;101110;;;;
2022/04/21 04:22:00;;;;;;;14.4;8.0;;;;;;;8.4;100.0;101110;;;;
2022/04/21 04:23:00;;;;;;;14.4;8.0;;;;;;;8.4;100.0;101110;;;;
2022/04/21 04:24:00;;;;;;;14.4;8.0;;;;;;;8.3;100.0;101110;;;;
2022/04/21 04:25:00;;;;;;;14.4;8.0;;;;;;;8.3;100.0;101110;;;;
2022/04/21 04:26:00;;;;;;;14.4;8.0;;;;;;;8.3;100.0;101110;;;;
2022/04/21 04:27:00;;;;;;;14.4;8.0;;;;;;;8.3;100.0;101110;;;;
2022/04/21 04:28:04;;;;;;;14.4;8.0;;;;;;;8.3;100.0;101110;;;;
2022/04/21 04:29:00;;;;;;;14.4;8.0;;;;;;;8.3;100.0;101110;;;;
2022/04/21 04:30:00;;;;;;;14.4;8.0;;;;;;;8.3;100.0;101110;;;;
2022/04/21 04:31:00;;;;;;;14.4;8.0;;;;;;;8.3;100.0;101110;;;;
2022/04/21 04:32:01;;;;;;;14.4;8.0;;;;;;;8.3;100.0;101100;;;;
2022/04/21 04:33:00;;;;;;;14.4;8.0;;;;;;;8.3;100.0;101100;;;;
2022/04/21 04:34:05;;;;;;;14.4;8.0;;;;;;;8.2;100.0;101100;;;;
2022/04/21 04:35:00;;;;;;;14.4;8.0;;;;;;;8.2;100.0;101100;;;;
2022/04/21 04:36:00;;;;;;;14.4;8.0;;;;;;;8.3;100.0;101100;;;;
2022/04/21 04:37:00;;;;;;;14.4;8.0;;;;;;;8.3;100.0;101100;;;;
2022/04/21 04:38:00;;;;;;;14.4;8.0;;;;;;;8.2;100.0;101100;;;;
2022/04/21 04:39:00;;;;;;;9.1;8.1;;;;;;;8.2;100.0;101100;;;;
2022/04/21 04:40:00;;;;;;;9.1;8.1;;;;;;;8.2;100.0;101110;;;;
2022/04/21 04:42:16;;;;;;;9.1;8.1;;;;;;;8.2;100.0;101110;;;;
2022/04/21 04:43:01;;;;;;;9.1;8.1;;;;;;;8.1;100.0;101110;;;;
2022/04/21 04:44:00;;;;;;;9.1;8.1;;;;;;;8.1;100.0;101110;;;;
2022/04/21 04:47:00;;;;;;;9.1;8.1;;;;;;;8.1;100.0;101110;;;;
2022/04/21 04:48:00;;;;;;;9.1;8.1;;;;;;;8.1;100.0;101110;;;;
2022/04/21 04:49:00;;;;;;;9.1;8.1;;;;;;;8.1;100.0;101110;;;;
2022/04/21 04:50:00;;;;;;;9.1;8.1;;;;;;;8.1;100.0;101110;;;;
2022/04/21 04:51:00;;;;;;;9.1;8.1;;;;;;;8.1;100.0;101110;;;;
2022/04/21 04:52:00;;;;;;;9.1;8.1;;;;;;;8.2;100.0;101110;;;;
2022/04/21 04:53:01;;;;;;;9.1;8.1;;;;;;;8.2;100.0;101110;;;;
2022/04/21 04:54:00;;;;;;;9.1;8.1;;;;;;;8.2;100.0;101100;;;;
2022/04/21 04:55:00;;;;;;;9.1;8.1;;;;;;;8.2;100.0;101100;;;;
2022/04/21 04:56:00;;;;;;;9.1;8.1;;;;;;;8.2;100.0;101110;;;;
2022/04/21 04:57:00;;;;;;;9.1;8.1;;;;;;;8.2;100.0;101110;;;;
2022/04/21 04:58:00;;;;;;;9.1;8.1;;;;;;;8.1;100.0;101110;;;;
2022/04/21 04:59:00;;;;;;;9.5;8.2;;;;;;;8.1;100.0;101110;;;;
2022/04/21 05:00:00;;;;;;;9.5;8.2;;;;;;;8.2;100.0;101110;;;;
2022/04/21 05:01:00;;;;;;;9.5;8.2;;;;;;;8.2;100.0;101110;;;;
2022/04/21 05:02:01;;;;;;;9.5;8.2;;;;;;;8.2;100.0;101100;;;;
2022/04/21 05:03:00;;;;;;;9.5;8.2;;;;;;;8.2;100.0;101100;;;;
2022/04/21 05:04:03;;;;;;;9.5;8.2;;;;;;;8.1;100.0;101110;;;;
2022/04/21 05:05:00;;;;;;;9.5;8.2;;;;;;;8.1;100.0;101110;;;;
2022/04/21 05:06:00;;;;;;;9.5;8.2;;;;;;;8.1;100.0;101110;;;;
2022/04/21 05:07:00;;;;;;;9.5;8.2;;;;;;;8.1;100.0;101110;;;;
2022/04/21 05:08:02;;;;;;;9.5;8.2;;;;;;;8.0;100.0;101110;;;;
2022/04/21 05:09:00;;;;;;;9.5;8.2;;;;;;;8.0;100.0;101110;;;;
2022/04/21 05:10:00;;;;;;;9.5;8.2;;;;;;;8.0;100.0;101110;;;;
2022/04/21 05:11:01;;;;;;;9.5;8.2;;;;;;;8.0;100.0;101110;;;;
2022/04/21 05:12:00;;;;;;;9.5;8.2;;;;;;;8.1;100.0;101110;;;;
2022/04/21 05:13:00;;;;;;;9.5;8.2;;;;;;;8.1;100.0;101110;;;;
2022/04/21 05:14:00;;;;;;;9.5;8.2;;;;;;;8.1;100.0;101110;;;;
2022/04/21 05:15:00;;;;;;;9.5;8.2;;;;;;;8.1;100.0;101110;;;;
2022/04/21 05:16:00;;;;;;;9.5;8.2;;;;;;;8.2;100.0;101110;;;;
2022/04/21 05:17:00;;;;;;;9.5;8.2;;;;;;;8.2;100.0;101110;;;;
2022/04/21 05:18:01;;;;;;;9.5;8.2;;;;;;;8.1;100.0;101110;;;;
2022/04/21 05:19:00;;;;;;;8.4;7.5;;;;;;;8.1;100.0;101110;;;;
2022/04/21 05:20:05;;;;;;;8.4;7.5;;;;;;;8.1;100.0;101110;;;;
2022/04/21 05:21:00;;;;;;;8.4;7.5;;;;;;;8.1;100.0;101110;;;;
2022/04/21 05:22:02;;;;;;;8.4;7.5;;;;;;;8.2;100.0;101110;;;;
2022/04/21 05:23:04;;;;;;;8.4;7.5;;;;;;;8.2;100.0;101110;;;;
2022/04/21 05:24:00;;;;;;;8.4;7.5;;;;;;;8.2;100.0;101110;;;;
2022/04/21 05:25:01;;;;;;;8.4;7.5;;;;;;;8.2;100.0;101110;;;;
2022/04/21 05:26:00;;;;;;;8.4;7.5;;;;;;;8.2;100.0;101110;;;;
2022/04/21 05:27:00;;;;;;;8.4;7.5;;;;;;;8.2;100.0;101110;;;;
2022/04/21 05:28:00;;;;;;;8.4;7.5;;;;;;;8.2;100.0;101110;;;;
2022/04/21 05:30:54;;;;;;;8.4;7.5;;;;;;;8.2;100.0;101110;;;;
2022/04/21 05:31:01;;;;;;;8.4;7.5;;;;;;;8.1;100.0;101110;;;;
2022/04/21 05:32:01;;;;;;;8.4;7.5;;;;;;;8.1;100.0;101100;;;;
2022/04/21 05:33:00;;;;;;;8.4;7.5;;;;;;;8.1;100.0;101100;;;;
2022/04/21 05:34:00;;;;;;;8.4;7.5;;;;;;;8.2;100.0;101100;;;;
2022/04/21 05:35:00;;;;;;;8.4;7.5;;;;;;;8.2;100.0;101100;;;;
2022/04/21 05:36:00;;;;;;;8.4;7.5;;;;;;;8.2;100.0;101110;;;;
2022/04/21 05:37:01;;;;;;;8.4;7.5;;;;;;;8.2;100.0;101110;;;;
2022/04/21 05:38:00;;;;;;;8.4;7.5;;;;;;;8.3;100.0;101110;;;;
2022/04/21 05:39:00;;;;;;;9.0;8.2;;;;;;;8.3;100.0;101110;;;;
2022/04/21 05:40:00;;;;;;;9.0;8.2;;;;;;;8.3;100.0;101110;;;;
2022/04/21 05:41:00;;;;;;;9.0;8.2;;;;;;;8.3;100.0;101110;;;;
2022/04/21 05:42:00;;;;;;;9.0;8.2;;;;;;;8.5;100.0;101100;;;;
2022/04/21 05:43:02;;;;;;;9.0;8.2;;;;;;;8.4;100.0;101100;;;;
2022/04/21 05:44:01;;;;;;;9.0;8.2;;;;;;;8.4;100.0;101100;;;;
2022/04/21 05:45:00;;;;;;;9.0;8.2;;;;;;;8.4;100.0;101100;;;;
2022/04/21 05:46:00;;;;;;;9.0;8.2;;;;;;;8.5;100.0;101100;;;;
2022/04/21 05:47:00;;;;;;;9.0;8.2;;;;;;;8.5;100.0;101100;;;;
2022/04/21 05:48:01;;;;;;;9.0;8.2;;;;;;;8.6;100.0;101110;;;;
2022/04/21 05:49:00;;;;;;;9.0;8.2;;;;;;;8.6;100.0;101110;;;;
2022/04/21 05:50:00;;;;;;;9.0;8.2;;;;;;;8.6;100.0;101110;;;;
2022/04/21 05:51:00;;;;;;;9.0;8.2;;;;;;;8.6;100.0;101110;;;;
2022/04/21 05:52:01;;;;;;;9.0;8.2;;;;;;;8.6;100.0;101110;;;;
2022/04/21 05:53:03;;;;;;;9.0;8.2;;;;;;;8.6;100.0;101110;;;;
2022/04/21 05:54:03;;;;;;;9.0;8.2;;;;;;;8.6;100.0;101110;;;;
2022/04/21 05:55:00;;;;;;;9.0;8.2;;;;;;;8.6;100.0;101110;;;;
2022/04/21 05:56:00;;;;;;;9.0;8.2;;;;;;;8.6;100.0;101100;;;;
2022/04/21 05:57:00;;;;;;;9.0;8.2;;;;;;;8.6;100.0;101100;;;;
2022/04/21 05:58:00;;;;;;;9.0;8.2;;;;;;;8.8;100.0;101100;;;;
2022/04/21 05:59:00;;;;;;;10.1;8.3;;;;;;;8.8;100.0;101100;;;;
2022/04/21 06:00:00;;;;;;;10.1;8.3;;;;;;;8.8;100.0;101100;;;;
2022/04/21 06:01:04;;;;;;;10.1;8.3;;;;;;;8.9;100.0;101100;;;;
2022/04/21 06:02:00;;;;;;;10.1;8.3;;;;;;;8.9;100.0;101100;;;;
2022/04/21 06:03:00;;;;;;;10.1;8.3;;;;;;;8.9;100.0;101100;;;;
2022/04/21 06:04:00;;;;;;;10.1;8.3;;;;;;;8.9;100.0;101100;;;;
2022/04/21 06:05:00;;;;;;;10.1;8.3;;;;;;;8.9;100.0;101100;;;;
2022/04/21 06:06:00;;;;;;;10.1;8.3;;;;;;;9.0;100.0;101100;;;;
2022/04/21 06:07:00;;;;;;;10.1;8.3;;;;;;;9.0;100.0;101100;;;;
2022/04/21 06:08:00;;;;;;;10.1;8.3;;;;;;;9.1;100.0;101090;;;;
2022/04/21 06:09:00;;;;;;;10.1;8.3;;;;;;;9.1;100.0;101090;;;;
2022/04/21 06:10:00;;;;;;;10.1;8.3;;;;;;;9.1;100.0;101090;;;;
2022/04/21 06:11:00;;;;;;;10.1;8.3;;;;;;;9.1;100.0;101090;;;;
2022/04/21 06:12:01;;;;;;;10.1;8.3;;;;;;;9.1;100.0;101090;;;;
2022/04/21 06:13:02;;;;;;;10.1;8.3;;;;;;;9.1;100.0;101090;;;;
2022/04/21 06:14:00;;;;;;;10.1;8.3;;;;;;;9.2;100.0;101100;;;;
2022/04/21 06:15:00;;;;;;;10.1;8.3;;;;;;;9.2;100.0;101100;;;;
2022/04/21 06:16:00;;;;;;;10.1;8.3;;;;;;;9.3;100.0;101100;;;;
2022/04/21 06:17:00;;;;;;;10.1;8.3;;;;;;;9.3;100.0;101100;;;;
2022/04/21 06:18:00;;;;;;;10.1;8.3;;;;;;;9.2;100.0;101100;;;;
2022/04/21 06:19:00;;;;;;;8.3;7.5;;;;;;;9.2;100.0;101100;;;;
2022/04/21 06:20:00;;;;;;;8.3;7.5;;;;;;;9.4;100.0;101100;;;;
2022/04/21 06:21:00;;;;;;;8.3;7.5;;;;;;;9.4;100.0;101100;;;;
2022/04/21 06:22:00;;;;;;;8.3;7.5;;;;;;;9.4;100.0;101100;;;;
2022/04/21 06:23:00;;;;;;;8.3;7.5;;;;;;;9.4;100.0;101100;;;;
2022/04/21 06:24:00;;;;;;;8.3;7.5;;;;;;;9.5;100.0;101100;;;;
2022/04/21 06:25:00;;;;;;;8.3;7.5;;;;;;;9.5;100.0;101100;;;;
2022/04/21 06:26:00;;;;;;;8.3;7.5;;;;;;;9.5;100.0;101100;;;;
2022/04/21 06:27:00;;;;;;;8.3;7.5;;;;;;;9.5;100.0;101100;;;;
2022/04/21 06:28:00;;;;;;;8.3;7.5;;;;;;;9.7;100.0;101090;;;;
2022/04/21 06:29:02;;;;;;;8.3;7.5;;;;;;;9.7;100.0;101090;;;;
2022/04/21 06:30:00;;;;;;;8.3;7.5;;;;;;;9.8;100.0;101090;;;;
2022/04/21 06:31:00;;;;;;;8.3;7.5;;;;;;;9.8;100.0;101090;;;;
2022/04/21 06:32:00;;;;;;;8.3;7.5;;;;;;;9.8;100.0;101090;;;;
2022/04/21 06:33:00;;;;;;;8.3;7.5;;;;;;;9.8;100.0;101090;;;;
2022/04/21 06:34:00;;;;;;;8.3;7.5;;;;;;;9.9;100.0;101090;;;;
2022/04/21 06:35:00;;;;;;;8.3;7.5;;;;;;;9.9;100.0;101090;;;;
2022/04/21 06:36:00;;;;;;;8.3;7.5;;;;;;;10.0;100.0;101090;;;;
2022/04/21 06:37:00;;;;;;;8.3;7.5;;;;;;;10.0;100.0;101090;;;;
2022/04/21 06:38:00;;;;;;;8.3;7.5;;;;;;;10.0;100.0;101090;;;;
2022/04/21 06:39:01;;;;;;;8.2;7.4;;;;;;;10.0;100.0;101090;;;;
2022/04/21 06:40:00;;;;;;;8.2;7.4;;;;;;;10.0;100.0;101080;;;;
2022/04/21 06:41:01;;;;;;;8.2;7.4;;;;;;;10.0;100.0;101080;;;;
2022/04/21 06:42:00;;;;;;;8.2;7.4;;;;;;;10.2;100.0;101090;;;;
2022/04/21 06:48:04;;;;;;;8.2;7.4;;;;;;;10.4;100.0;101080;;;;
2022/04/21 06:49:01;;;;;;;8.2;7.4;;;;;;;10.4;100.0;101080;;;;
2022/04/21 06:50:01;;;;;;;8.2;7.4;;;;;;;10.5;100.0;101080;;;;
2022/04/21 06:51:00;;;;;;;8.2;7.4;;;;;;;10.5;100.0;101080;;;;
2022/04/21 06:52:00;;;;;;;8.2;7.4;;;;;;;10.5;100.0;101080;;;;
2022/04/21 06:53:00;;;;;;;8.2;7.4;;;;;;;10.5;100.0;101080;;;;
2022/04/21 06:54:00;;;;;;;8.2;7.4;;;;;;;10.5;100.0;101080;;;;
2022/04/21 06:55:00;;;;;;;8.2;7.4;;;;;;;10.5;100.0;101080;;;;